sensor_id;sensor_type;location;lat;lon;timestamp;pressure;altitude;pressure_sealevel;temperature;humidity
79639;BME280;69114;49.108;8.280;2023-09-18T00:01:46;99660.50;;;18.31;83.92
79639;BME280;69114;49.108;8.280;2023-09-18T00:04:11;99668.50;;;18.25;84.19
79639;BME280;69114;49.108;8.280;2023-09-18T00:06:37;99664.47;;;18.26;83.75
79639;BME280;69114;49.108;8.280;2023-09-18T00:09:02;99666.09;;;18.27;83.82
79639;BME280;69114;49.108;8.280;2023-09-18T00:11:28;99667.06;;;18.38;83.65
79639;BME280;69114;49.108;8.280;2023-09-18T00:13:53;99662.31;;;18.42;83.32
79639;BME280;69114;49.108;8.280;2023-09-18T00:16:18;99662.25;;;18.39;83.58
79639;BME280;69114;49.108;8.280;2023-09-18T00:18:44;99652.13;;;18.34;83.59
79639;BME280;69114;49.108;8.280;2023-09-18T00:21:10;99644.41;;;18.31;83.88
79639;BME280;69114;49.108;8.280;2023-09-18T00:23:36;99651.53;;;18.22;84.16
79639;BME280;69114;49.108;8.280;2023-09-18T00:26:02;99648.13;;;18.09;84.86
79639;BME280;69114;49.108;8.280;2023-09-18T00:28:27;99652.13;;;18.08;84.95
79639;BME280;69114;49.108;8.280;2023-09-18T00:30:53;99652.28;;;18.19;84.35
79639;BME280;69114;49.108;8.280;2023-09-18T00:33:18;99645.47;;;18.20;84.03
79639;BME280;69114;49.108;8.280;2023-09-18T00:35:48;99633.72;;;18.14;84.22
79639;BME280;69114;49.108;8.280;2023-09-18T00:38:14;99633.75;;;18.17;84.51
79639;BME280;69114;49.108;8.280;2023-09-18T00:40:40;99636.84;;;18.09;84.65
79639;BME280;69114;49.108;8.280;2023-09-18T00:43:05;99638.50;;;18.13;84.55
79639;BME280;69114;49.108;8.280;2023-09-18T00:45:30;99641.78;;;18.15;84.18
79639;BME280;69114;49.108;8.280;2023-09-18T00:47:56;99644.97;;;18.14;84.35
79639;BME280;69114;49.108;8.280;2023-09-18T00:50:21;99653.78;;;18.12;84.57
79639;BME280;69114;49.108;8.280;2023-09-18T00:52:47;99650.44;;;18.03;84.99
79639;BME280;69114;49.108;8.280;2023-09-18T00:55:14;99647.69;;;18.07;84.88
79639;BME280;69114;49.108;8.280;2023-09-18T00:57:40;99646.38;;;18.01;85.32
79639;BME280;69114;49.108;8.280;2023-09-18T01:00:06;99642.59;;;18.16;84.60
79639;BME280;69114;49.108;8.280;2023-09-18T01:02:33;99639.50;;;18.25;84.01
79639;BME280;69114;49.108;8.280;2023-09-18T01:04:59;99638.69;;;18.24;84.16
79639;BME280;69114;49.108;8.280;2023-09-18T01:07:24;99640.91;;;18.11;84.68
79639;BME280;69114;49.108;8.280;2023-09-18T01:09:49;99640.03;;;18.07;84.90
79639;BME280;69114;49.108;8.280;2023-09-18T01:12:42;99644.31;;;18.24;84.49
79639;BME280;69114;49.108;8.280;2023-09-18T01:15:14;99655.94;;;18.19;84.01
79639;BME280;69114;49.108;8.280;2023-09-18T01:17:43;99666.88;;;18.24;84.10
79639;BME280;69114;49.108;8.280;2023-09-18T01:20:10;99683.66;;;18.17;84.54
79639;BME280;69114;49.108;8.280;2023-09-18T01:22:35;99670.78;;;18.16;84.79
79639;BME280;69114;49.108;8.280;2023-09-18T01:25:02;99698.16;;;18.15;84.38
79639;BME280;69114;49.108;8.280;2023-09-18T01:27:28;99690.91;;;18.18;87.40
79639;BME280;69114;49.108;8.280;2023-09-18T01:29:53;99685.25;;;18.14;87.42
79639;BME280;69114;49.108;8.280;2023-09-18T01:32:19;99666.38;;;18.19;86.54
79639;BME280;69114;49.108;8.280;2023-09-18T01:34:47;99662.09;;;18.28;88.57
79639;BME280;69114;49.108;8.280;2023-09-18T01:37:14;99665.66;;;18.25;87.75
79639;BME280;69114;49.108;8.280;2023-09-18T01:39:41;99676.94;;;18.25;86.98
79639;BME280;69114;49.108;8.280;2023-09-18T01:42:07;99662.09;;;18.28;87.76
79639;BME280;69114;49.108;8.280;2023-09-18T01:44:35;99683.84;;;18.28;86.01
79639;BME280;69114;49.108;8.280;2023-09-18T01:47:25;99685.28;;;18.18;87.50
79639;BME280;69114;49.108;8.280;2023-09-18T01:49:53;99676.53;;;18.23;87.17
79639;BME280;69114;49.108;8.280;2023-09-18T01:52:19;99682.16;;;18.23;87.58
79639;BME280;69114;49.108;8.280;2023-09-18T01:54:44;99695.25;;;18.12;87.65
79639;BME280;69114;49.108;8.280;2023-09-18T01:57:10;99714.59;;;18.13;86.74
79639;BME280;69114;49.108;8.280;2023-09-18T01:59:37;99711.25;;;18.04;86.73
79639;BME280;69114;49.108;8.280;2023-09-18T02:02:02;99726.16;;;18.05;87.06
79639;BME280;69114;49.108;8.280;2023-09-18T02:04:37;99735.75;;;18.00;86.89
79639;BME280;69114;49.108;8.280;2023-09-18T02:07:02;99743.81;;;18.02;86.88
79639;BME280;69114;49.108;8.280;2023-09-18T02:09:28;99762.34;;;18.03;86.68
79639;BME280;69114;49.108;8.280;2023-09-18T02:11:53;99755.47;;;18.23;85.19
79639;BME280;69114;49.108;8.280;2023-09-18T02:14:18;99747.41;;;18.25;85.32
79639;BME280;69114;49.108;8.280;2023-09-18T02:16:44;99735.44;;;18.32;84.67
79639;BME280;69114;49.108;8.280;2023-09-18T02:19:11;99735.66;;;18.46;83.32
79639;BME280;69114;49.108;8.280;2023-09-18T02:21:38;99726.16;;;18.58;83.14
79639;BME280;69114;49.108;8.280;2023-09-18T02:26:29;99706.06;;;18.89;80.72
79639;BME280;69114;49.108;8.280;2023-09-18T02:28:57;99690.94;;;19.05;80.10
79639;BME280;69114;49.108;8.280;2023-09-18T02:31:23;99679.00;;;19.18;79.05
79639;BME280;69114;49.108;8.280;2023-09-18T02:33:48;99686.66;;;19.18;80.48
79639;BME280;69114;49.108;8.280;2023-09-18T02:36:14;99659.91;;;19.05;82.60
79639;BME280;69114;49.108;8.280;2023-09-18T02:38:40;99671.47;;;18.96;82.97
79639;BME280;69114;49.108;8.280;2023-09-18T02:41:05;99672.47;;;18.77;84.35
79639;BME280;69114;49.108;8.280;2023-09-18T02:43:31;99691.66;;;18.68;87.04
79639;BME280;69114;49.108;8.280;2023-09-18T02:45:56;99697.50;;;18.52;88.54
79639;BME280;69114;49.108;8.280;2023-09-18T02:48:21;99688.56;;;18.50;90.76
79639;BME280;69114;49.108;8.280;2023-09-18T02:50:47;99684.75;;;18.35;91.52
79639;BME280;69114;49.108;8.280;2023-09-18T02:53:22;99688.63;;;18.24;90.78
79639;BME280;69114;49.108;8.280;2023-09-18T02:55:52;99690.06;;;18.14;91.19
79639;BME280;69114;49.108;8.280;2023-09-18T02:58:18;99694.03;;;18.09;92.01
79639;BME280;69114;49.108;8.280;2023-09-18T03:00:45;99687.84;;;18.00;92.10
79639;BME280;69114;49.108;8.280;2023-09-18T03:03:11;99674.50;;;17.97;92.30
79639;BME280;69114;49.108;8.280;2023-09-18T03:05:36;99684.16;;;17.96;92.30
79639;BME280;69114;49.108;8.280;2023-09-18T03:08:02;99692.22;;;17.98;93.30
79639;BME280;69114;49.108;8.280;2023-09-18T03:10:28;99697.84;;;17.98;92.26
79639;BME280;69114;49.108;8.280;2023-09-18T03:12:57;99693.09;;;18.02;92.00
79639;BME280;69114;49.108;8.280;2023-09-18T03:15:22;99704.03;;;18.07;92.36
79639;BME280;69114;49.108;8.280;2023-09-18T03:17:50;99724.22;;;18.09;91.61
79639;BME280;69114;49.108;8.280;2023-09-18T03:20:15;99745.66;;;18.17;90.56
79639;BME280;69114;49.108;8.280;2023-09-18T03:22:41;99754.63;;;18.23;91.14
79639;BME280;69114;49.108;8.280;2023-09-18T03:25:07;99768.78;;;18.26;89.74
79639;BME280;69114;49.108;8.280;2023-09-18T03:27:32;99786.63;;;18.34;89.95
79639;BME280;69114;49.108;8.280;2023-09-18T03:29:58;99801.66;;;18.41;89.22
79639;BME280;69114;49.108;8.280;2023-09-18T03:32:23;99808.94;;;18.42;89.02
79639;BME280;69114;49.108;8.280;2023-09-18T03:34:52;99824.19;;;18.41;89.21
79639;BME280;69114;49.108;8.280;2023-09-18T03:37:18;99809.31;;;18.18;91.92
79639;BME280;69114;49.108;8.280;2023-09-18T03:39:43;99796.09;;;17.99;93.66
79639;BME280;69114;49.108;8.280;2023-09-18T03:42:09;99787.44;;;17.88;93.87
79639;BME280;69114;49.108;8.280;2023-09-18T03:44:34;99778.06;;;17.81;95.83
79639;BME280;69114;49.108;8.280;2023-09-18T03:47:00;99760.06;;;17.85;95.49
79639;BME280;69114;49.108;8.280;2023-09-18T03:49:27;99767.47;;;17.74;96.82
79639;BME280;69114;49.108;8.280;2023-09-18T03:51:52;99746.22;;;17.77;95.88
79639;BME280;69114;49.108;8.280;2023-09-18T03:54:18;99748.31;;;17.83;95.66
79639;BME280;69114;49.108;8.280;2023-09-18T03:56:43;99739.81;;;17.80;97.21
79639;BME280;69114;49.108;8.280;2023-09-18T03:59:08;99737.31;;;17.75;96.54
79639;BME280;69114;49.108;8.280;2023-09-18T04:01:34;99736.19;;;17.79;96.87
79639;BME280;69114;49.108;8.280;2023-09-18T04:03:59;99713.78;;;17.86;97.47
79639;BME280;69114;49.108;8.280;2023-09-18T04:06:25;99683.59;;;17.87;97.66
79639;BME280;69114;49.108;8.280;2023-09-18T04:08:51;99672.72;;;17.85;98.87
79639;BME280;69114;49.108;8.280;2023-09-18T04:11:16;99657.44;;;17.86;98.68
79639;BME280;69114;49.108;8.280;2023-09-18T04:13:42;99641.72;;;17.85;99.34
79639;BME280;69114;49.108;8.280;2023-09-18T04:16:07;99622.69;;;17.79;98.66
79639;BME280;69114;49.108;8.280;2023-09-18T04:18:33;99630.00;;;17.83;99.18
79639;BME280;69114;49.108;8.280;2023-09-18T04:20:58;99630.66;;;17.73;99.70
79639;BME280;69114;49.108;8.280;2023-09-18T04:23:26;99626.19;;;17.72;99.76
79639;BME280;69114;49.108;8.280;2023-09-18T04:25:53;99622.63;;;17.75;99.43
79639;BME280;69114;49.108;8.280;2023-09-18T04:28:20;99636.63;;;17.72;99.79
79639;BME280;69114;49.108;8.280;2023-09-18T04:30:46;99615.28;;;17.71;99.86
79639;BME280;69114;49.108;8.280;2023-09-18T04:33:13;99606.78;;;17.67;99.37
79639;BME280;69114;49.108;8.280;2023-09-18T04:35:38;99615.97;;;17.64;99.54
79639;BME280;69114;49.108;8.280;2023-09-18T04:38:06;99603.34;;;17.54;99.51
79639;BME280;69114;49.108;8.280;2023-09-18T04:40:33;99599.78;;;17.57;99.93
79639;BME280;69114;49.108;8.280;2023-09-18T04:42:58;99602.97;;;17.56;100.00
79639;BME280;69114;49.108;8.280;2023-09-18T04:45:24;99607.84;;;17.59;100.00
79639;BME280;69114;49.108;8.280;2023-09-18T04:47:50;99615.00;;;17.53;99.96
79639;BME280;69114;49.108;8.280;2023-09-18T04:50:16;99617.31;;;17.47;100.00
79639;BME280;69114;49.108;8.280;2023-09-18T04:52:41;99596.91;;;17.54;100.00
79639;BME280;69114;49.108;8.280;2023-09-18T04:55:07;99606.88;;;17.48;100.00
79639;BME280;69114;49.108;8.280;2023-09-18T04:57:33;99595.63;;;17.48;100.00
79639;BME280;69114;49.108;8.280;2023-09-18T04:59:59;99600.16;;;17.56;100.00
79639;BME280;69114;49.108;8.280;2023-09-18T05:02:24;99616.50;;;17.47;100.00
79639;BME280;69114;49.108;8.280;2023-09-18T05:04:51;99631.66;;;17.38;100.00
79639;BME280;69114;49.108;8.280;2023-09-18T05:07:16;99627.88;;;17.31;100.00
79639;BME280;69114;49.108;8.280;2023-09-18T05:09:42;99634.63;;;17.26;100.00
79639;BME280;69114;49.108;8.280;2023-09-18T05:12:09;99636.22;;;17.24;100.00
79639;BME280;69114;49.108;8.280;2023-09-18T05:14:42;99645.41;;;17.21;100.00
79639;BME280;69114;49.108;8.280;2023-09-18T05:17:16;99656.28;;;17.22;100.00
79639;BME280;69114;49.108;8.280;2023-09-18T05:19:45;99651.41;;;17.19;100.00
79639;BME280;69114;49.108;8.280;2023-09-18T05:22:11;99645.78;;;17.19;100.00
79639;BME280;69114;49.108;8.280;2023-09-18T05:24:40;99653.16;;;17.27;100.00
79639;BME280;69114;49.108;8.280;2023-09-18T05:27:06;99653.91;;;17.24;100.00
79639;BME280;69114;49.108;8.280;2023-09-18T05:29:32;99678.78;;;17.22;100.00
79639;BME280;69114;49.108;8.280;2023-09-18T05:31:57;99691.63;;;17.20;100.00
79639;BME280;69114;49.108;8.280;2023-09-18T05:34:23;99698.47;;;17.22;100.00
79639;BME280;69114;49.108;8.280;2023-09-18T05:36:48;99683.19;;;17.20;100.00
79639;BME280;69114;49.108;8.280;2023-09-18T05:39:14;99678.75;;;17.19;100.00
79639;BME280;69114;49.108;8.280;2023-09-18T05:41:39;99681.16;;;17.20;100.00
79639;BME280;69114;49.108;8.280;2023-09-18T05:44:05;99678.78;;;17.22;100.00
79639;BME280;69114;49.108;8.280;2023-09-18T05:46:34;99687.69;;;17.24;100.00
79639;BME280;69114;49.108;8.280;2023-09-18T05:48:59;99686.50;;;17.25;100.00
79639;BME280;69114;49.108;8.280;2023-09-18T05:51:25;99687.31;;;17.26;100.00
79639;BME280;69114;49.108;8.280;2023-09-18T05:53:51;99699.88;;;17.32;100.00
79639;BME280;69114;49.108;8.280;2023-09-18T05:56:16;99679.75;;;17.30;100.00
79639;BME280;69114;49.108;8.280;2023-09-18T05:58:43;99691.81;;;17.30;100.00
79639;BME280;69114;49.108;8.280;2023-09-18T06:01:08;99690.63;;;17.31;100.00
79639;BME280;69114;49.108;8.280;2023-09-18T06:03:34;99695.06;;;17.32;100.00
79639;BME280;69114;49.108;8.280;2023-09-18T06:06:06;99695.06;;;17.32;100.00
79639;BME280;69114;49.108;8.280;2023-09-18T06:08:33;99700.38;;;17.37;100.00
79639;BME280;69114;49.108;8.280;2023-09-18T06:10:58;99719.66;;;17.35;100.00
79639;BME280;69114;49.108;8.280;2023-09-18T06:13:24;99729.78;;;17.40;100.00
79639;BME280;69114;49.108;8.280;2023-09-18T06:15:51;99736.75;;;17.46;100.00
79639;BME280;69114;49.108;8.280;2023-09-18T06:18:18;99730.00;;;17.51;100.00
79639;BME280;69114;49.108;8.280;2023-09-18T06:20:46;99733.28;;;17.53;100.00
79639;BME280;69114;49.108;8.280;2023-09-18T06:23:11;99725.97;;;17.52;100.00
79639;BME280;69114;49.108;8.280;2023-09-18T06:25:36;99721.53;;;17.51;100.00
79639;BME280;69114;49.108;8.280;2023-09-18T06:28:03;99724.06;;;17.56;100.00
79639;BME280;69114;49.108;8.280;2023-09-18T06:30:29;99731.63;;;17.52;100.00
79639;BME280;69114;49.108;8.280;2023-09-18T06:32:56;99733.38;;;17.60;100.00
79639;BME280;69114;49.108;8.280;2023-09-18T06:35:21;99732.97;;;17.58;100.00
79639;BME280;69114;49.108;8.280;2023-09-18T06:37:47;99734.72;;;17.66;100.00
79639;BME280;69114;49.108;8.280;2023-09-18T06:40:13;99740.84;;;17.72;100.00
79639;BME280;69114;49.108;8.280;2023-09-18T06:42:38;99747.03;;;17.77;98.49
79639;BME280;69114;49.108;8.280;2023-09-18T06:45:05;99758.78;;;17.83;98.10
79639;BME280;69114;49.108;8.280;2023-09-18T06:47:32;99740.34;;;17.85;97.50
79639;BME280;69114;49.108;8.280;2023-09-18T06:49:58;99757.34;;;17.92;96.79
79639;BME280;69114;49.108;8.280;2023-09-18T06:52:23;99758.22;;;17.97;96.70
79639;BME280;69114;49.108;8.280;2023-09-18T06:54:50;99771.56;;;18.00;96.09
79639;BME280;69114;49.108;8.280;2023-09-18T06:57:15;99769.25;;;18.05;94.86
79639;BME280;69114;49.108;8.280;2023-09-18T06:59:41;99770.47;;;18.08;95.34
79639;BME280;69114;49.108;8.280;2023-09-18T07:04:41;99781.69;;;18.27;93.01
79639;BME280;69114;49.108;8.280;2023-09-18T07:07:14;99791.00;;;18.31;92.51
79639;BME280;69114;49.108;8.280;2023-09-18T07:09:40;99793.56;;;18.40;91.19
79639;BME280;69114;49.108;8.280;2023-09-18T07:12:07;99787.59;;;18.45;91.10
79639;BME280;69114;49.108;8.280;2023-09-18T07:14:32;99780.78;;;18.46;91.63
79639;BME280;69114;49.108;8.280;2023-09-18T07:16:57;99795.38;;;18.52;91.00
79639;BME280;69114;49.108;8.280;2023-09-18T07:21:49;99787.50;;;18.64;88.95
79639;BME280;69114;49.108;8.280;2023-09-18T07:24:14;99789.56;;;18.67;89.03
79639;BME280;69114;49.108;8.280;2023-09-18T07:26:46;99799.31;;;18.70;88.54
79639;BME280;69114;49.108;8.280;2023-09-18T07:29:12;99804.94;;;18.70;88.81
79639;BME280;69114;49.108;8.280;2023-09-18T07:31:38;99806.59;;;18.71;88.10
79639;BME280;69114;49.108;8.280;2023-09-18T07:34:03;99808.22;;;18.72;87.99
79639;BME280;69114;49.108;8.280;2023-09-18T07:36:29;99807.41;;;18.72;87.90
79639;BME280;69114;49.108;8.280;2023-09-18T07:38:55;99814.28;;;18.74;87.79
79639;BME280;69114;49.108;8.280;2023-09-18T07:41:22;99807.81;;;18.74;87.62
79639;BME280;69114;49.108;8.280;2023-09-18T07:43:47;99821.66;;;18.82;85.97
79639;BME280;69114;49.108;8.280;2023-09-18T07:46:13;99807.63;;;18.86;85.95
79639;BME280;69114;49.108;8.280;2023-09-18T07:48:39;99814.47;;;18.85;86.15
79639;BME280;69114;49.108;8.280;2023-09-18T07:51:04;99820.91;;;18.85;85.39
79639;BME280;69114;49.108;8.280;2023-09-18T07:53:29;99824.09;;;18.84;86.22
79639;BME280;69114;49.108;8.280;2023-09-18T07:55:56;99817.63;;;18.83;85.39
79639;BME280;69114;49.108;8.280;2023-09-18T07:58:26;99815.63;;;18.84;85.55
79639;BME280;69114;49.108;8.280;2023-09-18T08:00:54;99828.19;;;18.86;85.10
79639;BME280;69114;49.108;8.280;2023-09-18T08:03:19;99812.44;;;18.85;85.53
79639;BME280;69114;49.108;8.280;2023-09-18T08:05:44;99809.22;;;18.87;84.65
79639;BME280;69114;49.108;8.280;2023-09-18T08:08:10;99814.50;;;18.88;85.06
79639;BME280;69114;49.108;8.280;2023-09-18T08:10:39;99808.16;;;18.95;83.31
79639;BME280;69114;49.108;8.280;2023-09-18T08:13:05;99796.06;;;18.98;83.93
79639;BME280;69114;49.108;8.280;2023-09-18T08:15:31;99790.81;;;18.97;83.91
79639;BME280;69114;49.108;8.280;2023-09-18T08:17:56;99800.50;;;18.96;83.81
79639;BME280;69114;49.108;8.280;2023-09-18T08:20:22;99785.19;;;18.97;84.02
79639;BME280;69114;49.108;8.280;2023-09-18T08:22:47;99790.50;;;19.02;83.44
79639;BME280;69114;49.108;8.280;2023-09-18T08:25:13;99792.09;;;18.99;83.23
79639;BME280;69114;49.108;8.280;2023-09-18T08:27:39;99759.88;;;19.04;83.19
79639;BME280;69114;49.108;8.280;2023-09-18T08:30:09;99765.47;;;19.00;83.13
79639;BME280;69114;49.108;8.280;2023-09-18T08:32:38;99775.19;;;19.03;82.54
79639;BME280;69114;49.108;8.280;2023-09-18T08:35:05;99768.81;;;19.09;82.68
79639;BME280;69114;49.108;8.280;2023-09-18T08:37:31;99774.88;;;19.11;82.50
79639;BME280;69114;49.108;8.280;2023-09-18T08:39:56;99780.59;;;19.15;82.48
79639;BME280;69114;49.108;8.280;2023-09-18T08:42:22;99768.09;;;19.16;82.15
79639;BME280;69114;49.108;8.280;2023-09-18T08:44:51;99765.72;;;19.18;82.01
79639;BME280;69114;49.108;8.280;2023-09-18T08:47:18;99765.78;;;19.25;81.28
79639;BME280;69114;49.108;8.280;2023-09-18T08:49:46;99767.47;;;19.30;81.46
79639;BME280;69114;49.108;8.280;2023-09-18T08:52:15;99770.75;;;19.35;81.54
79639;BME280;69114;49.108;8.280;2023-09-18T08:54:40;99773.56;;;19.35;81.45
79639;BME280;69114;49.108;8.280;2023-09-18T08:57:05;99783.66;;;19.36;81.72
79639;BME280;69114;49.108;8.280;2023-09-18T08:59:35;99789.75;;;19.38;81.19
79639;BME280;69114;49.108;8.280;2023-09-18T09:02:01;99802.34;;;19.44;80.78
79639;BME280;69114;49.108;8.280;2023-09-18T09:04:27;99801.13;;;19.45;80.73
79639;BME280;69114;49.108;8.280;2023-09-18T09:06:52;99810.91;;;19.52;81.85
79639;BME280;69114;49.108;8.280;2023-09-18T09:09:18;99804.00;;;19.49;80.97
79639;BME280;69114;49.108;8.280;2023-09-18T09:11:51;99816.22;;;19.57;80.89
79639;BME280;69114;49.108;8.280;2023-09-18T09:14:16;99831.09;;;19.54;80.36
79639;BME280;69114;49.108;8.280;2023-09-18T09:16:47;99836.31;;;19.52;80.46
79639;BME280;69114;49.108;8.280;2023-09-18T09:19:15;99841.97;;;19.52;80.51
79639;BME280;69114;49.108;8.280;2023-09-18T09:21:42;99840.31;;;19.51;80.42
79639;BME280;69114;49.108;8.280;2023-09-18T09:24:09;99826.66;;;19.53;79.55
79639;BME280;69114;49.108;8.280;2023-09-18T09:26:40;99835.47;;;19.48;80.05
79639;BME280;69114;49.108;8.280;2023-09-18T09:29:32;99838.63;;;19.42;80.53
79639;BME280;69114;49.108;8.280;2023-09-18T09:32:15;99841.47;;;19.42;79.79
79639;BME280;69114;49.108;8.280;2023-09-18T09:34:43;99816.44;;;19.44;80.06
79639;BME280;69114;49.108;8.280;2023-09-18T09:37:08;99812.88;;;19.48;80.12
79639;BME280;69114;49.108;8.280;2023-09-18T09:39:34;99810.13;;;19.55;79.16
79639;BME280;69114;49.108;8.280;2023-09-18T09:42:01;99814.69;;;19.63;79.05
79639;BME280;69114;49.108;8.280;2023-09-18T09:44:31;99817.22;;;19.72;78.11
79639;BME280;69114;49.108;8.280;2023-09-18T09:46:59;99838.25;;;19.78;78.32
79639;BME280;69114;49.108;8.280;2023-09-18T09:49:24;99827.00;;;19.81;78.08
79639;BME280;69114;49.108;8.280;2023-09-18T09:51:53;99823.81;;;19.86;77.26
79639;BME280;69114;49.108;8.280;2023-09-18T09:54:32;99818.19;;;19.86;77.12
79639;BME280;69114;49.108;8.280;2023-09-18T09:57:02;99819.44;;;19.92;77.08
79639;BME280;69114;49.108;8.280;2023-09-18T09:59:28;99812.66;;;20.01;76.24
79639;BME280;69114;49.108;8.280;2023-09-18T10:01:55;99811.91;;;20.04;75.78
79639;BME280;69114;49.108;8.280;2023-09-18T10:04:23;99810.34;;;20.10;76.61
79639;BME280;69114;49.108;8.280;2023-09-18T10:07:01;99812.00;;;20.14;75.85
79639;BME280;69114;49.108;8.280;2023-09-18T10:09:30;99822.19;;;20.23;75.12
79639;BME280;69114;49.108;8.280;2023-09-18T10:12:00;99832.25;;;20.20;74.91
79639;BME280;69114;49.108;8.280;2023-09-18T10:14:30;99827.84;;;20.26;74.06
79639;BME280;69114;49.108;8.280;2023-09-18T10:16:59;99824.66;;;20.31;73.50
79639;BME280;69114;49.108;8.280;2023-09-18T10:24:46;99816.41;;;20.53;72.40
79639;BME280;69114;49.108;8.280;2023-09-18T10:27:12;99829.03;;;20.66;72.02
79639;BME280;69114;49.108;8.280;2023-09-18T10:29:40;99821.03;;;20.79;71.43
79639;BME280;69114;49.108;8.280;2023-09-18T10:32:07;99831.16;;;20.83;71.23
79639;BME280;69114;49.108;8.280;2023-09-18T10:34:36;99827.16;;;20.84;71.27
79639;BME280;69114;49.108;8.280;2023-09-18T10:37:03;99821.47;;;20.88;70.14
79639;BME280;69114;49.108;8.280;2023-09-18T10:39:35;99809.03;;;21.00;69.71
79639;BME280;69114;49.108;8.280;2023-09-18T10:42:02;99816.31;;;21.01;69.34
79639;BME280;69114;49.108;8.280;2023-09-18T10:44:29;99813.88;;;20.99;69.69
79639;BME280;69114;49.108;8.280;2023-09-18T10:46:57;99807.47;;;21.09;69.68
79639;BME280;69114;49.108;8.280;2023-09-18T10:49:22;99813.22;;;21.23;69.27
79639;BME280;69114;49.108;8.280;2023-09-18T10:51:48;99822.56;;;21.31;68.75
79639;BME280;69114;49.108;8.280;2023-09-18T10:54:23;99820.91;;;21.27;68.06
79639;BME280;69114;49.108;8.280;2023-09-18T10:56:48;99808.72;;;21.19;67.75
79639;BME280;69114;49.108;8.280;2023-09-18T10:59:15;99810.41;;;21.27;68.26
79639;BME280;69114;49.108;8.280;2023-09-18T11:01:42;99821.00;;;21.44;67.26
79639;BME280;69114;49.108;8.280;2023-09-18T11:04:07;99816.16;;;21.41;67.04
79639;BME280;69114;49.108;8.280;2023-09-18T11:09:28;99820.34;;;21.87;66.49
79639;BME280;69114;49.108;8.280;2023-09-18T11:12:02;99819.50;;;21.76;65.85
79639;BME280;69114;49.108;8.280;2023-09-18T11:14:50;99796.38;;;21.63;66.33
79639;BME280;69114;49.108;8.280;2023-09-18T11:17:32;99798.81;;;21.61;66.22
79639;BME280;69114;49.108;8.280;2023-09-18T11:20:28;99807.38;;;21.75;65.46
79639;BME280;69114;49.108;8.280;2023-09-18T11:25:41;99818.69;;;21.71;65.43
79639;BME280;69114;49.108;8.280;2023-09-18T11:28:22;99812.66;;;21.91;65.06
79639;BME280;69114;49.108;8.280;2023-09-18T11:30:58;99813.91;;;22.08;65.12
79639;BME280;69114;49.108;8.280;2023-09-18T11:33:41;99812.28;;;22.07;65.01
79639;BME280;69114;49.108;8.280;2023-09-18T11:36:12;99818.81;;;22.25;64.27
79639;BME280;69114;49.108;8.280;2023-09-18T11:38:59;99805.47;;;22.47;63.51
79639;BME280;69114;49.108;8.280;2023-09-18T11:41:30;99818.41;;;22.59;63.60
79639;BME280;69114;49.108;8.280;2023-09-18T11:46:45;99819.63;;;22.29;63.95
79639;BME280;69114;49.108;8.280;2023-09-18T11:49:13;99840.72;;;22.32;63.50
79639;BME280;69114;49.108;8.280;2023-09-18T11:51:39;99817.19;;;22.31;63.27
79639;BME280;69114;49.108;8.280;2023-09-18T11:54:07;99811.50;;;22.45;62.55
79639;BME280;69114;49.108;8.280;2023-09-18T11:56:33;99816.38;;;22.59;62.85
79639;BME280;69114;49.108;8.280;2023-09-18T11:58:58;99822.06;;;22.48;62.92
79639;BME280;69114;49.108;8.280;2023-09-18T12:01:25;99806.66;;;22.60;61.93
79639;BME280;69114;49.108;8.280;2023-09-18T12:03:59;99809.91;;;22.59;62.00
79639;BME280;69114;49.108;8.280;2023-09-18T12:06:25;99807.47;;;22.43;62.81
79639;BME280;69114;49.108;8.280;2023-09-18T12:08:53;99805.84;;;22.53;62.52
79639;BME280;69114;49.108;8.280;2023-09-18T12:11:20;99804.22;;;22.62;62.53
79639;BME280;69114;49.108;8.280;2023-09-18T12:13:47;99807.47;;;22.57;62.94
79639;BME280;69114;49.108;8.280;2023-09-18T12:16:15;99805.00;;;22.73;62.46
79639;BME280;69114;49.108;8.280;2023-09-18T12:18:48;99807.09;;;22.55;63.12
79639;BME280;69114;49.108;8.280;2023-09-18T12:21:14;99808.28;;;22.22;64.07
79639;BME280;69114;49.108;8.280;2023-09-18T12:23:41;99807.88;;;22.13;64.05
79639;BME280;69114;49.108;8.280;2023-09-18T12:26:11;99810.72;;;22.34;63.91
79639;BME280;69114;49.108;8.280;2023-09-18T12:28:38;99805.47;;;22.36;63.89
79639;BME280;69114;49.108;8.280;2023-09-18T12:31:04;99815.16;;;22.35;63.57
79639;BME280;69114;49.108;8.280;2023-09-18T12:33:34;99811.94;;;22.44;63.81
79639;BME280;69114;49.108;8.280;2023-09-18T12:36:00;99809.09;;;22.37;63.37
79639;BME280;69114;49.108;8.280;2023-09-18T12:38:25;99801.81;;;22.46;62.80
79639;BME280;69114;49.108;8.280;2023-09-18T12:40:53;99821.25;;;22.84;61.59
79639;BME280;69114;49.108;8.280;2023-09-18T12:43:20;99822.84;;;23.10;60.52
79639;BME280;69114;49.108;8.280;2023-09-18T12:45:48;99825.97;;;23.40;59.23
79639;BME280;69114;49.108;8.280;2023-09-18T12:48:14;99818.66;;;23.46;59.01
79639;BME280;69114;49.108;8.280;2023-09-18T12:50:40;99816.94;;;23.63;58.89
79639;BME280;69114;49.108;8.280;2023-09-18T12:53:09;99813.72;;;23.65;59.14
79639;BME280;69114;49.108;8.280;2023-09-18T12:55:35;99812.16;;;23.46;59.08
79639;BME280;69114;49.108;8.280;2023-09-18T12:58:01;99807.28;;;23.46;59.13
79639;BME280;69114;49.108;8.280;2023-09-18T13:00:30;99808.16;;;23.36;59.66
79639;BME280;69114;49.108;8.280;2023-09-18T13:02:56;99801.38;;;23.93;58.48
79639;BME280;69114;49.108;8.280;2023-09-18T13:05:24;99801.50;;;23.75;58.23
79639;BME280;69114;49.108;8.280;2023-09-18T13:08:02;99805.38;;;24.02;56.83
79639;BME280;69114;49.108;8.280;2023-09-18T13:10:27;99811.63;;;24.42;56.44
79639;BME280;69114;49.108;8.280;2023-09-18T13:12:53;99808.50;;;24.22;56.02
79639;BME280;69114;49.108;8.280;2023-09-18T13:15:27;99801.25;;;24.11;56.62
79639;BME280;69114;49.108;8.280;2023-09-18T13:17:53;99785.16;;;23.86;57.24
79639;BME280;69114;49.108;8.280;2023-09-18T13:20:24;99783.84;;;24.01;56.85